This is the latest recevied weather packets stored in our database for station/object KD8OZS. If no packets are shown the sender has not sent any weather packets the latest 10 day(s).
| Time | Temp. | Humidity | Pressure | Rain* | Wind** | Luminosity | Snow |
|---|---|---|---|---|---|---|---|
| 1778106279 | 12.22° C | 58% | 1005.4 hPa | 0 mm | - | 52 W/m² | - |
| 1778105066 | 12.22° C | 54% | 1004.8 hPa | 0 mm | - | 71 W/m² | - |
| 1778103247 | 12.78° C | 54% | 1004.9 hPa | 0 mm | - | 102 W/m² | - |
| 1778102944 | 12.78° C | 55% | 1004.8 hPa | 0 mm | - | 99 W/m² | - |
| 1778102031 | 12.78° C | 59% | 1004.5 hPa | 0 mm | - | 113 W/m² | - |
| 1778101425 | 13.33° C | 58% | 1004.3 hPa | 0 mm | - | 101 W/m² | - |
| 1778099910 | 12.78° C | 56% | 1004.1 hPa | 0 mm | - | 125 W/m² | - |
| 1778099001 | 12.78° C | 55% | 1004.7 hPa | 0 mm | - | 125 W/m² | - |
| 1778098395 | 12.78° C | 56% | 1004.5 hPa | 0 mm | - | 157 W/m² | - |
| 1778095362 | 13.89° C | 55% | 1004.2 hPa | 0 mm | - | 237 W/m² | - |
| 1778093240 | 13.33° C | 54% | 1004.8 hPa | 0 mm | - | 161 W/m² | - |
| 1778090208 | 13.89° C | 57% | 1004.7 hPa | 0 mm | - | 196 W/m² | - |
| 1778088992 | 15° C | 51% | 1004.3 hPa | 0 mm | - | 587 W/m² | - |
| 1778085355 | 13.33° C | 59% | 1004.5 hPa | 0 mm | - | 321 W/m² | - |
| 1778084747 | 13.33° C | 60% | 1004.5 hPa | 0 mm | - | 171 W/m² | - |
| 1778084440 | 13.33° C | 58% | 1004.5 hPa | 0 mm | - | 561 W/m² | - |
| 1778084137 | 12.78° C | 60% | 1004.1 hPa | 0 mm | - | 180 W/m² | - |
| 1778083834 | 12.78° C | 64% | 1004.2 hPa | 0 mm | - | 100 W/m² | - |
| 1778083534 | 12.22° C | 64% | 1004.2 hPa | 0 mm | - | 87 W/m² | - |
| 1778074550 | 7.78° C | 90% | 1003.2 hPa | 0 mm | - | 110 W/m² | - |
| 1778074247 | 7.78° C | 91% | 1003 hPa | 0 mm | - | 109 W/m² | - |
| 1778073944 | 7.78° C | 91% | 1003.1 hPa | 0 mm | - | 95 W/m² | - |
| 1778073339 | 7.78° C | 92% | 1003.1 hPa | 0 mm | - | 90 W/m² | - |
| 1778072732 | 7.78° C | 93% | 1002.5 hPa | 0 mm | - | 115 W/m² | - |
| 1778072128 | 7.78° C | 93% | 1002.4 hPa | 0 mm | - | 76 W/m² | - |
* Rain latest hour (hover to see other rain measurements)
** Current wind speed in m/s (hover to see current wind gust speed)